Time;durP1;ratioP1;P1;durP2;ratioP2;P2;SDS_P1;SDS_P2;PMS_P1;PMS_P2;Temp;Humidity;BMP_temperature;BMP_pressure;BME280_temperature;BME280_humidity;BME280_pressure;Samples;Min_cycle;Max_cycle;Signal;HPM_P1;HPM_P2
2023/06/09 00:02:06;;;;;;;9.63;8.73;;;;;;;16.01;67.11;96401.78;5072443;28;20048;-77
2023/06/09 00:04:35;;;;;;;10.32;8.43;;;;;;;15.91;67.14;96397.03;5072419;28;20504;-77
2023/06/09 00:07:04;;;;;;;9.82;7.82;;;;;;;15.84;67.11;96397.09;5071840;28;20079;-77
2023/06/09 00:09:32;;;;;;;8.57;7.70;;;;;;;15.80;67.22;96397.75;5071971;28;20052;-77
2023/06/09 00:12:00;;;;;;;8.23;7.40;;;;;;;15.84;67.90;96398.94;5072225;28;20095;-77
2023/06/09 00:14:29;;;;;;;9.52;8.27;;;;;;;15.87;67.53;96403.75;5072316;28;20114;-77
2023/06/09 00:16:56;;;;;;;7.68;6.88;;;;;;;15.93;67.64;96408.13;5071986;28;20048;-78
2023/06/09 00:19:27;;;;;;;13.75;8.93;;;;;;;15.96;67.03;96406.88;5072032;28;20048;-77
2023/06/09 00:21:54;;;;;;;10.23;9.20;;;;;;;15.90;67.04;96407.78;5071906;28;20064;-78
2023/06/09 00:24:23;;;;;;;10.25;8.82;;;;;;;15.79;67.72;96404.06;5071941;28;20482;-77
2023/06/09 00:26:52;;;;;;;10.82;9.00;;;;;;;15.72;67.91;96398.06;5071424;28;20060;-77
2023/06/09 00:29:22;;;;;;;8.82;7.93;;;;;;;15.70;68.13;96402.69;5072026;28;20052;-77
2023/06/09 00:31:51;;;;;;;8.32;7.53;;;;;;;15.76;68.37;96399.22;5072403;28;20094;-77
2023/06/09 00:34:19;;;;;;;7.40;6.38;;;;;;;15.83;68.30;96403.41;5071638;28;20048;-77
2023/06/09 00:36:46;;;;;;;8.32;7.53;;;;;;;15.94;67.60;96407.13;5071787;28;20189;-77
2023/06/09 00:39:14;;;;;;;8.68;7.90;;;;;;;16.00;66.79;96402.78;5071892;28;20087;-77
2023/06/09 00:41:42;;;;;;;9.13;8.23;;;;;;;15.98;66.98;96402.22;5071948;28;20055;-77
2023/06/09 00:44:12;;;;;;;7.72;7.03;;;;;;;16.00;67.17;96406.22;5071630;28;20110;-77
2023/06/09 00:46:41;;;;;;;10.88;8.02;;;;;;;16.05;66.85;96409.00;5073295;28;20052;-77
2023/06/09 00:49:10;;;;;;;9.00;8.07;;;;;;;16.02;66.13;96419.97;5086889;28;20060;-77
2023/06/09 00:51:38;;;;;;;7.78;6.95;;;;;;;15.92;65.91;96411.81;5083934;28;20093;-77
2023/06/09 00:54:06;;;;;;;7.75;6.95;;;;;;;15.83;66.00;96407.84;5072438;28;20048;-78
2023/06/09 00:56:35;;;;;;;6.25;5.65;;;;;;;15.81;67.03;96407.28;5072171;28;20071;-77
2023/06/09 00:59:04;;;;;;;6.93;5.97;;;;;;;15.89;66.72;96408.78;5075617;28;20098;-77
2023/06/09 01:01:32;;;;;;;8.07;6.40;;;;;;;15.91;66.27;96398.84;5075389;28;20105;-77
2023/06/09 01:04:00;;;;;;;7.00;6.30;;;;;;;15.96;65.96;96404.25;5075469;28;20041;-77
2023/06/09 01:06:38;;;;;;;7.70;5.85;;;;;;;15.93;65.43;96410.75;5075456;28;20127;-77
2023/06/09 01:09:14;;;;;;;6.88;6.25;;;;;;;15.80;65.06;96405.66;5075374;28;20056;-77
2023/06/09 01:11:50;;;;;;;8.05;6.47;;;;;;;15.71;65.25;96406.94;5075762;28;20139;-77
2023/06/09 01:14:25;;;;;;;6.97;6.30;;;;;;;15.64;65.47;96409.66;5075375;28;20048;-77
2023/06/09 01:16:59;;;;;;;7.22;6.50;;;;;;;15.54;65.53;96410.13;5074949;28;20075;-77
2023/06/09 01:19:31;;;;;;;6.43;5.82;;;;;;;15.47;65.89;96405.97;5075622;28;20087;-77
2023/06/09 01:22:03;;;;;;;;;;;;;;;15.42;65.66;96406.63;5075542;28;20405;-77
2023/06/09 01:24:46;;;;;;;6.32;5.70;;;;;;;15.35;66.07;96409.31;5074823;28;19920;-77
2023/06/09 01:27:18;;;;;;;6.90;6.13;;;;;;;15.32;66.17;96408.94;5075298;28;20061;-77
2023/06/09 01:29:48;;;;;;;6.32;5.70;;;;;;;15.31;65.94;96407.34;5077320;28;20458;-77
2023/06/09 01:32:18;;;;;;;8.93;6.28;;;;;;;15.28;65.86;96408.56;5075644;28;20102;-77
2023/06/09 01:34:46;;;;;;;5.90;5.30;;;;;;;15.23;65.58;96403.16;5075688;28;20048;-77
2023/06/09 01:37:14;;;;;;;6.68;5.97;;;;;;;15.17;65.84;96407.44;5075583;28;20110;-77
2023/06/09 01:39:42;;;;;;;6.70;5.78;;;;;;;15.15;65.85;96400.78;5078929;28;20056;-77
2023/06/09 01:42:10;;;;;;;6.70;5.82;;;;;;;15.12;65.98;96409.91;5078151;28;20424;-77
2023/06/09 01:44:39;;;;;;;6.20;5.60;;;;;;;15.10;66.23;96404.06;5074667;28;20515;-77
2023/06/09 01:47:06;;;;;;;8.35;5.72;;;;;;;15.08;66.23;96400.06;5074754;28;20053;-77
2023/06/09 01:49:42;;;;;;;8.05;6.22;;;;;;;15.04;66.28;96403.13;5074681;28;20052;-77
2023/06/09 01:52:17;;;;;;;7.03;6.32;;;;;;;15.02;66.39;96399.06;5074807;28;20098;-77
2023/06/09 01:54:49;;;;;;;7.72;5.82;;;;;;;15.00;66.36;96396.69;5074507;28;20045;-77
2023/06/09 01:57:26;;;;;;;6.70;6.10;;;;;;;14.98;66.62;96403.97;5074222;28;20053;-77
2023/06/09 02:00:00;;;;;;;7.68;6.60;;;;;;;14.96;66.81;96403.38;5074412;28;20048;-77
2023/06/09 02:02:29;;;;;;;7.18;5.85;;;;;;;14.96;66.68;96400.75;5075065;28;20049;-77
2023/06/09 02:04:59;;;;;;;6.47;5.88;;;;;;;14.97;66.79;96402.34;5074825;28;20048;-77
2023/06/09 02:07:27;;;;;;;6.93;6.22;;;;;;;14.98;66.69;96397.91;5073861;28;20056;-77
2023/06/09 02:09:56;;;;;;;8.10;6.03;;;;;;;14.97;66.63;96406.81;5074178;28;20105;-77
2023/06/09 02:12:23;;;;;;;6.43;5.65;;;;;;;14.98;66.95;96409.22;5074116;28;20393;-77
2023/06/09 02:14:51;;;;;;;8.75;7.93;;;;;;;15.00;67.19;96401.13;5074462;28;20055;-77
2023/06/09 02:17:20;;;;;;;9.13;8.20;;;;;;;15.00;67.54;96403.75;5074016;28;20087;-77
2023/06/09 02:19:48;;;;;;;8.93;8.02;;;;;;;14.98;67.77;96403.97;5074231;28;20095;-77
2023/06/09 02:22:16;;;;;;;8.70;7.20;;;;;;;14.97;67.75;96401.53;5073885;28;20534;-77
2023/06/09 02:24:44;;;;;;;7.28;6.57;;;;;;;14.96;68.00;96390.25;5073590;28;20044;-77
2023/06/09 02:27:11;;;;;;;6.68;6.07;;;;;;;15.01;67.16;96405.34;5073554;28;20053;-77
2023/06/09 02:29:39;;;;;;;6.65;5.95;;;;;;;14.99;66.80;96400.31;5074101;28;20044;-77
2023/06/09 02:32:07;;;;;;;6.40;5.18;;;;;;;14.98;67.06;96395.28;5073970;28;20127;-77
2023/06/09 02:34:37;;;;;;;7.25;6.50;;;;;;;14.99;66.87;96399.50;5073788;28;20040;-77
2023/06/09 02:37:07;;;;;;;8.40;6.65;;;;;;;14.98;66.86;96400.53;5073403;28;20048;-77
2023/06/09 02:39:35;;;;;;;7.20;6.50;;;;;;;14.99;66.75;96386.38;5073918;28;20050;-77
2023/06/09 02:42:02;;;;;;;6.50;5.53;;;;;;;15.07;66.80;96396.63;5073990;28;20094;-77
2023/06/09 02:44:31;;;;;;;6.60;6.00;;;;;;;15.20;66.13;96390.47;5073446;28;20041;-77
2023/06/09 02:46:59;;;;;;;7.13;6.43;;;;;;;15.21;65.81;96395.47;5072953;28;20045;-77
2023/06/09 02:49:27;;;;;;;7.65;6.88;;;;;;;15.14;65.85;96391.31;5073959;28;20056;-77
2023/06/09 02:51:56;;;;;;;7.93;6.35;;;;;;;15.06;66.07;96400.25;5073300;28;20048;-77
2023/06/09 02:54:23;;;;;;;7.97;6.32;;;;;;;14.97;66.31;96396.28;5073228;28;20090;-77
2023/06/09 02:56:51;;;;;;;7.53;6.80;;;;;;;14.87;66.55;96388.91;5073250;28;20207;-77
2023/06/09 02:59:19;;;;;;;6.78;6.05;;;;;;;14.77;66.66;96391.19;5073224;28;20052;-77
2023/06/09 03:01:47;;;;;;;7.00;6.30;;;;;;;14.68;67.25;96388.03;5073369;28;20053;-77
2023/06/09 03:04:17;;;;;;;8.02;6.63;;;;;;;14.62;67.44;96394.91;5085830;28;20049;-77
2023/06/09 03:06:49;;;;;;;8.23;7.35;;;;;;;14.58;67.65;96387.69;5086956;28;20121;-78
2023/06/09 03:09:18;;;;;;;7.15;6.45;;;;;;;14.53;67.87;96390.13;5087410;28;20059;-77
2023/06/09 03:11:46;;;;;;;7.65;6.95;;;;;;;14.55;68.03;96393.38;5074981;28;20488;-77
2023/06/09 03:14:14;;;;;;;7.43;6.65;;;;;;;14.57;68.08;96396.59;5073713;28;20445;-77
2023/06/09 03:16:41;;;;;;;6.35;5.75;;;;;;;14.67;67.70;96396.94;5073056;28;20444;-77
2023/06/09 03:19:10;;;;;;;9.18;7.00;;;;;;;14.72;67.18;96399.72;5072642;28;20051;-77
2023/06/09 03:21:37;;;;;;;7.45;6.47;;;;;;;14.71;67.03;96398.09;5073360;28;20106;-77
2023/06/09 03:24:07;;;;;;;9.02;6.68;;;;;;;14.66;67.08;96397.94;5072941;28;20458;-77
2023/06/09 03:26:36;;;;;;;7.85;6.95;;;;;;;14.60;67.42;96404.81;5072423;28;20098;-77
2023/06/09 03:29:04;;;;;;;8.95;6.40;;;;;;;14.56;67.43;96405.47;5073035;28;20090;-77
2023/06/09 03:31:31;;;;;;;8.18;6.80;;;;;;;14.54;67.54;96399.59;5072546;28;20531;-77
2023/06/09 03:33:59;;;;;;;9.73;6.40;;;;;;;14.55;67.52;96398.63;5072587;28;20048;-77
2023/06/09 03:36:27;;;;;;;10.07;6.38;;;;;;;14.58;67.74;96400.81;5072365;28;20078;-77
2023/06/09 03:38:54;;;;;;;8.80;6.30;;;;;;;14.63;68.16;96408.88;5072507;28;20087;-77
2023/06/09 03:41:22;;;;;;;7.25;6.57;;;;;;;14.70;68.17;96406.19;5072364;28;20109;-77
2023/06/09 03:43:51;;;;;;;8.63;6.28;;;;;;;14.77;68.03;96406.94;5075298;28;20056;-77
2023/06/09 03:46:19;;;;;;;7.75;6.35;;;;;;;14.82;68.25;96415.81;5086266;28;20079;-77
2023/06/09 03:48:47;;;;;;;8.77;6.25;;;;;;;14.93;68.63;96405.63;5082610;28;20048;-77
2023/06/09 03:51:15;;;;;;;6.57;5.97;;;;;;;15.05;67.84;96411.78;5073098;28;20102;-77
2023/06/09 03:53:43;;;;;;;6.50;5.82;;;;;;;15.18;67.56;96414.31;5072593;28;20458;-76
2023/06/09 03:56:11;;;;;;;8.18;7.28;;;;;;;15.29;66.87;96418.06;5072021;28;20045;-77
2023/06/09 03:58:39;;;;;;;8.10;7.15;;;;;;;15.34;66.28;96414.78;5072393;28;20052;-77
2023/06/09 04:01:10;;;;;;;8.30;7.05;;;;;;;15.39;66.47;96414.94;5072377;28;20044;-77
2023/06/09 04:03:38;;;;;;;7.70;6.90;;;;;;;15.44;66.41;96415.09;5072454;28;20044;-77
2023/06/09 04:06:06;;;;;;;6.82;6.20;;;;;;;15.51;65.99;96417.66;5072286;28;20048;-77
2023/06/09 04:08:34;;;;;;;7.72;6.97;;;;;;;15.56;65.96;96417.81;5072272;28;20053;-77
2023/06/09 04:11:01;;;;;;;8.02;6.40;;;;;;;15.61;65.94;96418.78;5072117;28;20052;-77
2023/06/09 04:13:29;;;;;;;7.50;6.80;;;;;;;15.68;65.45;96418.72;5072278;28;20415;-77
2023/06/09 04:15:57;;;;;;;8.35;7.43;;;;;;;15.73;65.16;96415.44;5072021;28;20048;-77
2023/06/09 04:18:26;;;;;;;8.32;7.53;;;;;;;15.78;65.04;96419.00;5072235;28;20045;-77
2023/06/09 04:20:54;;;;;;;8.63;7.70;;;;;;;15.83;64.86;96416.56;5072289;28;20053;-77
2023/06/09 04:23:21;;;;;;;11.20;9.55;;;;;;;15.82;64.29;96420.19;5072196;28;20524;-77
2023/06/09 04:25:49;;;;;;;9.27;7.97;;;;;;;15.71;65.06;96406.94;5071424;28;20428;-77
2023/06/09 04:28:17;;;;;;;9.00;8.10;;;;;;;15.67;65.78;96409.19;5072123;28;20127;-77
2023/06/09 04:30:47;;;;;;;13.82;8.60;;;;;;;15.64;65.43;96399.94;5073180;28;20049;-77
2023/06/09 04:33:15;;;;;;;7.63;6.88;;;;;;;15.65;65.95;96398.09;5076022;28;20060;-77
2023/06/09 04:35:43;;;;;;;10.98;7.65;;;;;;;15.66;65.39;96404.97;5075775;28;20049;-77
2023/06/09 04:38:11;;;;;;;8.85;6.95;;;;;;;15.65;65.47;96398.91;5075887;28;20048;-77
2023/06/09 04:40:39;;;;;;;8.00;6.30;;;;;;;15.67;66.25;96401.31;5076482;28;20098;-77
2023/06/09 04:43:08;;;;;;;8.05;6.88;;;;;;;15.73;65.89;96399.66;5075681;28;20504;-78
2023/06/09 04:45:35;;;;;;;8.52;7.63;;;;;;;15.78;65.20;96403.22;5075287;28;20500;-77
2023/06/09 04:48:05;;;;;;;8.15;7.35;;;;;;;15.81;65.79;96396.75;5076214;28;20051;-77
2023/06/09 04:50:33;;;;;;;9.20;8.20;;;;;;;15.87;65.79;96406.38;5075865;28;20044;-77
2023/06/09 04:53:03;;;;;;;9.05;7.82;;;;;;;15.95;65.48;96398.19;5075831;28;20466;-77
2023/06/09 04:55:32;;;;;;;7.93;7.13;;;;;;;16.02;65.38;96406.81;5075616;28;20510;-77
2023/06/09 04:57:59;;;;;;;9.40;8.45;;;;;;;16.10;65.15;96399.66;5075661;28;20048;-77
2023/06/09 05:00:28;;;;;;;9.13;8.23;;;;;;;16.18;65.13;96409.84;5075379;28;20504;-77
2023/06/09 05:02:57;;;;;;;30.23;20.60;;;;;;;16.23;64.83;96407.38;5075370;28;20059;-77
2023/06/09 05:05:25;;;;;;;30.60;23.52;;;;;;;16.28;64.63;96407.50;5075144;28;20045;-77
2023/06/09 05:07:53;;;;;;;13.02;9.85;;;;;;;16.33;64.58;96398.94;5075655;28;20052;-77
2023/06/09 05:10:22;;;;;;;9.80;8.27;;;;;;;16.37;64.39;96400.91;5075630;28;20048;-77
2023/06/09 05:12:50;;;;;;;9.88;8.55;;;;;;;16.33;64.51;96402.38;5075633;28;20409;-77
2023/06/09 05:15:17;;;;;;;9.57;7.55;;;;;;;16.29;65.06;96406.50;5075020;28;20048;-78
2023/06/09 05:17:45;;;;;;;9.50;8.30;;;;;;;16.32;65.11;96403.41;5075137;28;20055;-77
2023/06/09 05:20:13;;;;;;;11.10;9.45;;;;;;;16.35;65.04;96397.69;5075124;28;20492;-77
2023/06/09 05:22:41;;;;;;;9.88;8.88;;;;;;;16.37;65.24;96403.53;5075243;28;20080;-77
2023/06/09 05:25:10;;;;;;;10.85;9.07;;;;;;;16.37;64.92;96405.38;5074472;28;20041;-77
2023/06/09 05:27:54;;;;;;;12.48;9.73;;;;;;;16.33;65.25;96405.00;5101656;22;20041;-89
2023/06/09 05:30:32;;;;;;;10.23;8.20;;;;;;;16.33;65.63;96399.75;5080459;28;20041;-90
2023/06/09 05:33:16;;;;;;;9.13;8.23;;;;;;;16.40;65.44;96399.69;5080554;28;20033;-89
2023/06/09 05:35:52;;;;;;;10.38;9.05;;;;;;;16.47;65.23;96411.72;5080461;28;20029;-89
2023/06/09 05:38:29;;;;;;;8.75;7.75;;;;;;;16.55;65.91;96412.41;5080444;28;20083;-91
2023/06/09 05:41:05;;;;;;;12.77;8.95;;;;;;;16.56;65.42;96411.41;5080540;28;20028;-89
2023/06/09 05:43:49;;;;;;;9.27;8.02;;;;;;;16.60;65.30;96408.09;5079530;28;20056;-90
2023/06/09 05:46:45;;;;;;;9.00;8.10;;;;;;;16.67;65.22;96410.63;5080059;28;20120;-88
2023/06/09 05:49:27;;;;;;;8.48;7.68;;;;;;;16.73;65.17;96399.19;5080122;28;20037;-89
2023/06/09 05:52:03;;;;;;;8.38;7.57;;;;;;;16.81;64.81;96396.25;5080289;28;20093;-89
2023/06/09 05:54:40;;;;;;;8.43;7.60;;;;;;;16.88;64.68;96399.59;5079915;28;20033;-90
2023/06/09 05:57:22;;;;;;;10.55;8.70;;;;;;;16.97;64.19;96415.09;5079885;28;20033;-90
2023/06/09 06:00:07;;;;;;;10.45;9.00;;;;;;;17.00;64.75;96425.16;5080076;28;20049;-89
2023/06/09 06:05:24;;;;;;;12.50;9.13;;;;;;;16.99;64.28;96418.28;5079369;28;20067;-90
2023/06/09 06:07:52;;;;;;;9.52;8.20;;;;;;;16.96;64.64;96424.00;5079705;28;20029;-90
2023/06/09 06:10:24;;;;;;;9.13;7.85;;;;;;;17.00;64.73;96427.81;5079813;28;20033;-90
2023/06/09 06:12:58;;;;;;;9.37;8.43;;;;;;;17.04;64.82;96421.06;5080015;28;20037;-90
2023/06/09 06:15:33;;;;;;;8.02;7.15;;;;;;;17.11;64.93;96431.50;5079481;28;20044;-90
2023/06/09 06:18:07;;;;;;;8.68;7.60;;;;;;;17.16;64.65;96424.50;5079625;28;20037;-89
2023/06/09 06:20:38;;;;;;;11.27;7.53;;;;;;;17.24;64.94;96434.72;5079616;28;20120;-91
2023/06/09 06:23:09;;;;;;;7.45;6.75;;;;;;;17.32;64.68;96422.22;5079607;28;20060;-90
2023/06/09 06:25:59;;;;;;;8.00;7.22;;;;;;;17.43;64.20;96424.06;5079387;28;20063;-89
2023/06/09 06:28:32;;;;;;;7.70;6.88;;;;;;;17.53;63.87;96432.19;5079475;28;20037;-89
2023/06/09 06:31:11;;;;;;;7.80;7.00;;;;;;;17.61;64.15;96429.22;5079342;28;20109;-90
2023/06/09 06:33:54;;;;;;;7.45;6.75;;;;;;;17.74;64.59;96436.09;5079545;28;20043;-90
2023/06/09 06:36:36;;;;;;;8.15;7.35;;;;;;;17.86;64.56;96438.75;5079129;28;20342;-88
2023/06/09 06:39:20;;;;;;;7.47;6.70;;;;;;;17.98;64.62;96436.91;5079452;28;20028;-87
2023/06/09 06:42:16;;;;;;;7.50;6.68;;;;;;;18.10;64.79;96440.31;5079271;28;20053;-89
2023/06/09 06:44:54;;;;;;;7.13;6.32;;;;;;;18.24;64.49;96437.41;5078860;28;20037;-88
2023/06/09 06:47:39;;;;;;;9.27;6.68;;;;;;;18.35;64.17;96441.84;5078492;28;20048;-90
2023/06/09 06:50:14;;;;;;;7.07;5.72;;;;;;;18.46;63.33;96438.38;5078816;28;20041;-88
2023/06/09 06:53:00;;;;;;;8.48;5.38;;;;;;;18.60;63.13;96446.00;5078584;28;20094;-88
2023/06/09 06:55:41;;;;;;;7.35;5.50;;;;;;;18.71;61.88;96437.22;5077337;28;20060;-88
2023/06/09 06:58:18;;;;;;;6.70;5.35;;;;;;;18.83;60.77;96440.66;5078715;28;20068;-88
2023/06/09 07:00:55;;;;;;;5.65;4.85;;;;;;;18.93;59.92;96446.13;5078478;28;20071;-91
2023/06/09 07:03:29;;;;;;;3.50;3.20;;;;;;;19.05;57.89;96450.53;5078311;28;20057;-87
2023/06/09 07:06:04;;;;;;;4.00;3.15;;;;;;;19.17;56.91;96447.81;5078065;28;20036;-89
2023/06/09 07:08:38;;;;;;;3.70;3.17;;;;;;;19.29;56.06;96459.13;5078401;28;20103;-90
2023/06/09 07:11:13;;;;;;;3.03;2.80;;;;;;;19.39;55.64;96446.03;5077709;28;20056;-87
2023/06/09 07:14:09;;;;;;;3.35;3.05;;;;;;;19.52;54.92;96455.47;5077467;28;20072;-87
2023/06/09 07:16:54;;;;;;;3.03;2.80;;;;;;;19.64;55.16;96453.56;5076730;28;20052;-88
2023/06/09 07:19:38;;;;;;;4.53;3.63;;;;;;;19.74;54.25;96452.91;5077401;28;20048;-88
2023/06/09 07:22:23;;;;;;;3.30;2.97;;;;;;;19.85;53.81;96453.84;5076923;28;20059;-90
2023/06/09 07:24:59;;;;;;;3.72;3.30;;;;;;;19.96;54.06;96455.59;5077290;28;20097;-89
2023/06/09 07:27:50;;;;;;;4.10;3.20;;;;;;;20.06;54.05;96461.03;5077270;28;20116;-87
2023/06/09 07:30:38;;;;;;;3.53;3.13;;;;;;;20.18;53.89;96458.25;5076918;28;20044;-86
2023/06/09 07:33:32;;;;;;;4.05;3.47;;;;;;;20.31;53.96;96467.69;5076296;28;20071;-88
2023/06/09 07:39:42;;;;;;;3.35;3.05;;;;;;;20.56;53.52;96465.34;5075705;28;20137;-88
2023/06/09 07:42:34;;;;;;;3.53;3.10;;;;;;;20.68;52.24;96467.88;5077936;28;20128;-88
2023/06/09 07:45:11;;;;;;;4.18;2.83;;;;;;;20.77;51.67;96465.56;5077831;28;20055;-87
2023/06/09 07:47:48;;;;;;;;;;;;;;;20.86;51.92;96450.84;5077651;28;20041;-89
2023/06/09 07:50:47;;;;;;;3.30;3.00;;;;;;;20.97;52.27;96454.38;5076857;28;19921;-89
2023/06/09 07:57:45;;;;;;;4.07;3.40;;;;;;;21.22;51.72;96450.34;5013699;28;20034;-89
2023/06/09 08:01:09;;;;;;;4.40;3.42;;;;;;;21.34;51.78;96462.38;5014264;28;20054;-88
2023/06/09 08:03:55;;;;;;;3.42;3.13;;;;;;;21.44;51.42;96452.94;5016632;28;20026;-90
2023/06/09 08:09:43;;;;;;;3.30;3.03;;;;;;;21.66;51.88;96444.84;5016456;28;20038;-88
2023/06/09 08:19:48;;;;;;;3.43;2.43;;;;;;;22.07;51.34;96448.53;4946229;28;20044;-90
2023/06/09 08:22:55;;;;;;;2.72;2.53;;;;;;;22.19;50.62;96449.13;4986862;28;20510;-89
2023/06/09 08:26:01;;;;;;;4.35;2.72;;;;;;;22.31;49.81;96448.13;5002090;28;20050;-89
2023/06/09 08:28:48;;;;;;;3.13;2.83;;;;;;;22.40;49.58;96455.31;5012812;28;20073;-89
2023/06/09 08:35:35;;;;;;;3.78;2.08;;;;;;;22.58;48.64;96448.72;5048345;28;20064;-90
2023/06/09 08:39:09;;;;;;;3.50;3.20;;;;;;;22.60;48.26;96446.59;5075368;28;20112;-88
2023/06/09 08:45:06;;;;;;;4.00;2.75;;;;;;;22.76;47.76;96449.28;5075209;28;20060;-88
2023/06/09 08:51:15;;;;;;;4.82;2.78;;;;;;;22.91;47.93;96441.34;5068121;28;20076;-88
2023/06/09 08:54:25;;;;;;;3.72;3.38;;;;;;;23.01;47.57;96438.72;5075800;28;20068;-88
2023/06/09 08:57:10;;;;;;;5.18;3.35;;;;;;;23.11;47.86;96431.81;5074996;28;20041;-91
2023/06/09 09:00:08;;;;;;;2.93;2.60;;;;;;;23.20;47.36;96440.88;5076137;28;20239;-87
2023/06/09 09:03:03;;;;;;;3.22;3.00;;;;;;;23.26;45.99;96439.78;5076022;28;20052;-91
2023/06/09 09:09:23;;;;;;;4.63;2.72;;;;;;;23.33;45.06;96448.31;5073039;28;20037;-88
2023/06/09 09:12:22;;;;;;;2.85;2.60;;;;;;;23.34;44.48;96431.28;5076293;28;20033;-89
2023/06/09 09:15:06;;;;;;;;;;;;;;;;;;;;;
2023/06/09 09:18:02;;;;;;;3.33;2.90;;;;;;;23.40;44.59;96430.22;5077329;28;20056;-92
2023/06/09 09:24:30;;;;;;;4.25;3.22;;;;;;;23.57;44.62;96432.59;5077662;28;20108;-88
2023/06/09 09:27:30;;;;;;;3.42;2.85;;;;;;;23.64;44.13;96432.31;5080164;28;20060;-88
2023/06/09 09:30:37;;;;;;;;;;;;;;;;;;;;;
2023/06/09 09:40:08;;;;;;;;;;;;;;;23.84;43.91;96434.97;5080279;28;20109;-90
2023/06/09 09:43:25;;;;;;;4.35;2.85;;;;;;;23.89;43.03;96441.34;4999810;28;19933;-89
2023/06/09 09:46:32;;;;;;;3.75;3.03;;;;;;;24.00;42.71;96437.56;4998650;28;20054;-89
2023/06/09 09:49:29;;;;;;;3.42;2.78;;;;;;;24.02;42.22;96427.44;4998235;28;20110;-90
2023/06/09 09:55:37;;;;;;;3.58;2.35;;;;;;;24.19;40.96;96435.13;4988200;28;20066;-88
2023/06/09 09:58:54;;;;;;;2.88;2.60;;;;;;;24.25;41.12;96429.50;4998717;28;20050;-90
2023/06/09 10:01:53;;;;;;;2.75;2.30;;;;;;;24.31;40.83;96435.59;4998100;28;20039;-88
2023/06/09 10:04:46;;;;;;;4.65;2.75;;;;;;;24.41;40.64;96426.75;4999609;28;20102;-89
2023/06/09 10:07:40;;;;;;;2.63;2.42;;;;;;;24.48;40.31;96424.59;4999708;28;20058;-89
2023/06/09 10:10:32;;;;;;;3.10;2.80;;;;;;;24.53;39.93;96418.44;4999933;28;20046;-90
2023/06/09 10:13:18;;;;;;;3.13;2.83;;;;;;;24.59;40.61;96423.47;4998709;28;20102;-90
2023/06/09 10:16:28;;;;;;;3.25;2.60;;;;;;;24.67;39.95;96425.56;4998471;28;20079;-90
2023/06/09 10:19:14;;;;;;;3.05;2.75;;;;;;;24.79;40.45;96413.75;5016243;28;20461;-90
2023/06/09 10:21:58;;;;;;;6.72;2.95;;;;;;;24.84;39.75;96414.53;5076207;28;20049;-90
2023/06/09 10:24:57;;;;;;;2.90;2.70;;;;;;;24.85;39.39;96423.31;5077063;28;20041;-91
2023/06/09 10:27:55;;;;;;;3.60;2.97;;;;;;;24.79;39.74;96413.75;5076148;28;20067;-91
2023/06/09 10:30:43;;;;;;;4.85;2.60;;;;;;;24.78;39.22;96406.84;5076266;28;20051;-90
2023/06/09 10:33:31;;;;;;;2.95;2.67;;;;;;;24.76;39.71;96415.09;5077764;28;20053;-90
2023/06/09 10:36:14;;;;;;;2.95;2.70;;;;;;;24.79;38.94;96419.88;5076485;28;20139;-90
2023/06/09 10:39:10;;;;;;;3.30;2.80;;;;;;;24.86;39.11;96411.56;5077389;28;20029;-89
2023/06/09 10:42:10;;;;;;;2.60;2.38;;;;;;;24.95;38.90;96409.09;5079242;28;20036;-88
2023/06/09 10:45:09;;;;;;;4.90;2.50;;;;;;;25.01;39.21;96402.66;5079217;28;20072;-91
2023/06/09 10:47:47;;;;;;;3.47;2.83;;;;;;;25.11;38.80;96399.13;5079028;28;20047;-90
2023/06/09 10:50:26;;;;;;;4.65;2.28;;;;;;;25.17;38.46;96400.69;5078277;28;20067;-89
2023/06/09 10:53:19;;;;;;;3.42;2.80;;;;;;;25.19;37.43;96398.50;5076343;28;20067;-91
2023/06/09 10:56:31;;;;;;;3.55;2.47;;;;;;;25.23;36.73;96391.56;5076744;28;20566;-89
2023/06/09 10:59:00;;;;;;;3.15;2.50;;;;;;;25.29;36.92;96401.13;5075465;28;20041;-91
2023/06/09 11:01:39;;;;;;;2.63;2.43;;;;;;;25.32;36.60;96395.22;5076375;28;20056;-89
2023/06/09 11:04:45;;;;;;;2.97;2.67;;;;;;;25.41;36.85;96390.88;5075873;28;20047;-89
2023/06/09 11:07:50;;;;;;;5.65;2.20;;;;;;;25.48;36.89;96399.34;5075944;28;20079;-90
2023/06/09 11:10:45;;;;;;;2.97;2.70;;;;;;;25.54;36.55;96389.41;5076308;28;20039;-89
2023/06/09 11:13:41;;;;;;;2.90;2.60;;;;;;;25.67;36.48;96387.91;5076617;28;20067;-90
2023/06/09 11:16:17;;;;;;;3.03;2.70;;;;;;;25.73;35.61;96391.34;5075288;28;20033;-88
2023/06/09 11:18:48;;;;;;;3.83;2.50;;;;;;;25.69;35.74;96386.56;5078606;28;20041;-89
2023/06/09 11:21:27;;;;;;;3.70;2.58;;;;;;;25.65;35.95;96390.09;5078718;28;20113;-89
2023/06/09 11:24:16;;;;;;;3.42;2.55;;;;;;;25.69;36.11;96389.25;5076984;28;20049;-89
2023/06/09 11:26:44;;;;;;;4.53;2.70;;;;;;;25.66;36.26;96376.44;5085872;22;20128;-77
2023/06/09 11:29:21;;;;;;;3.17;2.95;;;;;;;25.67;36.12;96371.88;5052191;28;20049;-77
2023/06/09 11:31:52;;;;;;;6.75;3.15;;;;;;;25.71;36.02;96378.25;5052168;28;20049;-77
2023/06/09 11:34:55;;;;;;;4.85;2.78;;;;;;;25.75;35.45;96379.28;5051929;28;20087;-77
2023/06/09 11:37:24;;;;;;;5.18;2.88;;;;;;;25.69;35.18;96386.56;5066045;28;20106;-77
2023/06/09 11:39:53;;;;;;;2.83;2.63;;;;;;;25.67;35.16;96374.56;5071706;28;20099;-77
2023/06/09 11:42:21;;;;;;;5.40;2.92;;;;;;;25.69;35.53;96370.56;5071654;28;20106;-77
2023/06/09 11:44:49;;;;;;;3.97;3.42;;;;;;;25.74;35.53;96367.03;5071727;28;20143;-77
2023/06/09 11:47:27;;;;;;;5.38;3.20;;;;;;;25.86;35.43;96362.06;5071928;28;20048;-77
2023/06/09 11:50:04;;;;;;;4.03;3.10;;;;;;;25.95;35.03;96362.25;5071932;28;20044;-77
2023/06/09 11:52:32;;;;;;;3.22;2.70;;;;;;;26.03;34.93;96363.50;5071868;28;20049;-77
2023/06/09 11:55:04;;;;;;;3.97;3.58;;;;;;;26.05;34.13;96361.34;5071630;28;20048;-77
2023/06/09 11:57:33;;;;;;;5.38;3.25;;;;;;;25.98;34.00;96371.59;5071789;28;20117;-77
2023/06/09 12:00:09;;;;;;;4.57;3.08;;;;;;;25.88;34.13;96353.78;5072019;28;20489;-78
2023/06/09 12:02:37;;;;;;;9.45;3.22;;;;;;;25.86;33.99;96359.38;5072189;28;20446;-77
2023/06/09 12:05:07;;;;;;;3.33;3.03;;;;;;;25.90;33.88;96349.75;5071860;28;20053;-77
2023/06/09 12:07:36;;;;;;;4.68;3.55;;;;;;;25.90;33.86;96354.31;5071825;28;20055;-77
2023/06/09 12:10:06;;;;;;;4.78;3.00;;;;;;;25.90;33.54;96355.09;5071393;28;20158;-77
2023/06/09 12:12:43;;;;;;;4.25;2.90;;;;;;;25.89;33.54;96347.38;5071763;28;20052;-77
2023/06/09 12:15:11;;;;;;;2.95;2.63;;;;;;;25.89;33.80;96347.38;5071309;28;20107;-77
2023/06/09 12:17:39;;;;;;;3.65;3.00;;;;;;;25.90;32.78;96355.09;5071653;28;20087;-77
2023/06/09 12:20:20;;;;;;;5.43;2.80;;;;;;;25.94;32.38;96354.53;5071647;28;20052;-77
2023/06/09 12:22:49;;;;;;;3.15;2.83;;;;;;;25.96;33.03;96347.03;5071789;28;20052;-77
2023/06/09 12:25:26;;;;;;;2.95;2.53;;;;;;;26.01;32.09;96345.06;5071345;28;20127;-77
2023/06/09 12:27:54;;;;;;;5.18;2.75;;;;;;;26.04;32.06;96341.03;5071361;28;20102;-77
2023/06/09 12:30:36;;;;;;;3.30;2.72;;;;;;;26.03;32.46;96347.47;5071206;28;20044;-77
2023/06/09 12:33:06;;;;;;;4.68;3.08;;;;;;;26.02;32.62;96337.84;5071576;28;20053;-78
2023/06/09 12:35:38;;;;;;;5.22;2.80;;;;;;;26.05;32.10;96339.97;5071601;28;20461;-76
2023/06/09 12:38:10;;;;;;;5.13;2.80;;;;;;;26.08;32.13;96326.00;5071653;28;20565;-77
2023/06/09 12:40:49;;;;;;;;;;;;;;;26.14;33.00;96322.19;5071919;28;20565;-77
2023/06/09 12:43:18;;;;;;;4.10;3.15;;;;;;;26.20;32.33;96317.56;5071932;28;20372;-77
2023/06/09 12:45:46;;;;;;;6.30;3.50;;;;;;;26.24;32.77;96315.91;5071209;28;20131;-77
2023/06/09 12:48:14;;;;;;;3.25;2.88;;;;;;;26.30;33.12;96315.56;5071320;28;20123;-77
2023/06/09 12:50:44;;;;;;;3.38;3.08;;;;;;;26.39;32.90;96317.56;5071149;28;20044;-77
2023/06/09 12:53:13;;;;;;;3.30;3.05;;;;;;;26.43;32.69;96319.34;5074655;28;20049;-77
2023/06/09 12:55:42;;;;;;;4.90;3.47;;;;;;;26.44;33.20;96320.19;5074875;28;20057;-78
2023/06/09 12:58:11;;;;;;;3.25;2.95;;;;;;;26.48;32.60;96315.84;5075388;28;20044;-77
2023/06/09 13:00:39;;;;;;;3.22;2.78;;;;;;;26.51;32.61;96320.59;5075519;28;20463;-77
2023/06/09 13:03:09;;;;;;;3.20;2.90;;;;;;;26.55;31.78;96315.47;5075087;28;20056;-77
2023/06/09 13:05:37;;;;;;;2.95;2.75;;;;;;;26.51;31.48;96316.03;5074710;28;20049;-77
2023/06/09 13:08:05;;;;;;;2.97;2.78;;;;;;;26.50;31.99;96316.31;5074825;28;20428;-77
2023/06/09 13:10:33;;;;;;;4.72;3.17;;;;;;;26.55;31.84;96320.81;5074930;28;20076;-77